createdAt,value
2018-11-02T00:00:40.160Z,86.30
2018-11-02T00:03:08.142Z,85.80
2018-11-02T00:05:35.690Z,85.70
2018-11-02T00:08:03.118Z,85.20
2018-11-02T00:10:30.550Z,86.20
2018-11-02T00:12:59.825Z,86.20
2018-11-02T00:15:27.324Z,85.60
2018-11-02T00:17:54.754Z,85.40
2018-11-02T00:20:22.204Z,85.70
2018-11-02T00:22:49.712Z,85.40
2018-11-02T00:25:17.156Z,85.50
2018-11-02T00:27:44.627Z,86.20
2018-11-02T00:30:12.027Z,86.30
2018-11-02T00:32:39.467Z,86.60
2018-11-02T00:35:07.943Z,85.60
2018-11-02T00:37:35.391Z,86.00
2018-11-02T00:40:02.978Z,85.80
2018-11-02T00:42:30.403Z,84.90
2018-11-02T00:44:57.868Z,85.30
2018-11-02T00:47:25.306Z,85.30
2018-11-02T00:49:52.718Z,85.10
2018-11-02T00:52:20.128Z,86.20
2018-11-02T00:54:47.551Z,85.40
2018-11-02T00:57:14.971Z,85.30
2018-11-02T00:59:42.359Z,85.30
2018-11-02T01:02:10.066Z,86.00
2018-11-02T01:04:37.582Z,85.60
2018-11-02T01:07:05.767Z,85.10
2018-11-02T01:09:33.271Z,85.00
2018-11-02T01:12:00.703Z,85.00
2018-11-02T01:14:28.117Z,84.70
2018-11-02T01:16:55.508Z,85.40
2018-11-02T01:19:29.477Z,85.20
2018-11-02T01:21:56.921Z,84.80
2018-11-02T01:24:24.315Z,84.70
2018-11-02T01:26:51.794Z,84.40
2018-11-02T01:29:19.281Z,85.00
2018-11-02T01:31:46.730Z,84.70
2018-11-02T01:34:14.306Z,84.60
2018-11-02T01:36:41.731Z,84.80
2018-11-02T01:39:09.411Z,85.10
2018-11-02T01:41:36.835Z,84.80
2018-11-02T01:44:04.493Z,84.60
2018-11-02T01:46:31.915Z,84.50
2018-11-02T01:48:59.353Z,84.90
2018-11-02T01:51:26.779Z,84.90
2018-11-02T01:53:54.250Z,86.10
2018-11-02T01:56:21.735Z,85.10
2018-11-02T01:58:49.213Z,85.20
2018-11-02T02:01:16.764Z,85.00
2018-11-02T02:03:44.153Z,85.70
2018-11-02T02:06:11.598Z,85.70
2018-11-02T02:08:39.083Z,86.10
2018-11-02T02:11:06.722Z,85.80
2018-11-02T02:13:34.110Z,85.50
2018-11-02T02:16:01.515Z,86.00
2018-11-02T02:18:28.946Z,84.90
2018-11-02T02:20:56.652Z,84.90
2018-11-02T02:23:24.058Z,84.80
2018-11-02T02:25:51.517Z,84.40
2018-11-02T02:28:18.923Z,84.80
2018-11-02T02:30:46.329Z,84.70
2018-11-02T02:33:13.716Z,85.40
2018-11-02T02:35:41.122Z,85.80
2018-11-02T02:38:08.596Z,85.70
2018-11-02T02:40:35.961Z,85.60
2018-11-02T02:43:03.405Z,85.50
2018-11-02T02:45:31.135Z,85.50
2018-11-02T02:47:58.527Z,85.40
2018-11-02T02:50:25.944Z,85.40
2018-11-02T02:52:53.383Z,85.60
2018-11-02T02:55:20.880Z,85.70
2018-11-02T02:57:48.405Z,86.30
2018-11-02T03:00:15.868Z,86.10
2018-11-02T03:02:43.438Z,85.60
2018-11-02T03:05:11.054Z,85.60
2018-11-02T03:07:39.038Z,85.90
2018-11-02T03:10:07.021Z,86.10
2018-11-02T03:12:40.405Z,86.40
2018-11-02T03:15:08.046Z,86.70
2018-11-02T03:17:35.903Z,86.20
2018-11-02T03:20:05.234Z,85.90
2018-11-02T03:22:32.662Z,85.30
2018-11-02T03:24:59.978Z,85.60
2018-11-02T03:27:27.461Z,85.50
2018-11-02T03:29:54.962Z,85.60
2018-11-02T03:32:22.830Z,85.80
2018-11-02T03:34:50.252Z,85.60
2018-11-02T03:37:17.626Z,85.50
2018-11-02T03:39:44.995Z,85.40
2018-11-02T03:42:12.422Z,85.80
2018-11-02T03:44:39.811Z,85.60
2018-11-02T03:47:07.347Z,85.60
2018-11-02T03:49:34.802Z,85.60
2018-11-02T03:52:02.243Z,85.40
2018-11-02T03:54:29.613Z,85.40
2018-11-02T03:56:57.076Z,85.30
2018-11-02T03:59:24.849Z,85.40
2018-11-02T04:01:52.309Z,85.50
2018-11-02T04:04:19.693Z,85.50
2018-11-02T04:06:47.087Z,85.50
2018-11-02T04:09:14.589Z,85.50
2018-11-02T04:11:41.941Z,85.80
2018-11-02T04:14:09.377Z,85.70
2018-11-02T04:16:36.821Z,85.60
2018-11-02T04:19:04.256Z,86.20
2018-11-02T04:21:43.077Z,86.10
2018-11-02T04:24:10.578Z,86.40
2018-11-02T04:26:38.178Z,86.20
2018-11-02T04:29:05.613Z,86.00
2018-11-02T04:31:33.033Z,86.00
2018-11-02T04:34:00.412Z,86.10
2018-11-02T04:36:28.240Z,86.00
2018-11-02T04:38:55.642Z,86.00
2018-11-02T04:41:23.027Z,86.00
2018-11-02T04:43:50.462Z,86.00
2018-11-02T04:46:17.865Z,86.10
2018-11-02T04:48:45.330Z,86.30
2018-11-02T04:51:12.863Z,86.10
2018-11-02T04:53:40.171Z,85.70
2018-11-02T04:56:07.632Z,85.90
2018-11-02T04:58:35.062Z,85.90
2018-11-02T05:01:02.471Z,86.20
2018-11-02T05:03:30.162Z,86.30
2018-11-02T05:05:57.550Z,86.10
2018-11-02T05:08:24.930Z,86.30
2018-11-02T05:10:52.347Z,86.40
2018-11-02T05:13:19.787Z,86.50
2018-11-02T05:15:47.223Z,86.50
2018-11-02T05:18:14.687Z,86.30
2018-11-02T05:20:42.200Z,86.10
2018-11-02T05:23:09.642Z,86.00
2018-11-02T05:25:37.023Z,86.10
2018-11-02T05:28:04.786Z,86.20
2018-11-02T05:30:32.591Z,86.30
2018-11-02T05:32:59.991Z,86.10
2018-11-02T05:35:27.497Z,85.80
2018-11-02T05:37:54.922Z,85.90
2018-11-02T05:40:22.294Z,86.10
2018-11-02T05:42:49.683Z,86.00
2018-11-02T05:45:17.105Z,85.60
2018-11-02T05:47:44.466Z,85.60
2018-11-02T05:50:11.966Z,85.80
2018-11-02T05:52:39.358Z,85.70
2018-11-02T05:55:07.600Z,85.80
2018-11-02T05:57:35.194Z,85.70
2018-11-02T06:00:02.633Z,85.60
2018-11-02T06:02:30.096Z,85.40
2018-11-02T06:04:58.081Z,85.30
2018-11-02T06:07:25.559Z,85.10
2018-11-02T06:09:52.972Z,85.10
2018-11-02T06:12:20.399Z,84.90
2018-11-02T06:14:47.882Z,84.70
2018-11-02T06:17:15.290Z,84.50
2018-11-02T06:19:42.782Z,84.60
2018-11-02T06:22:10.191Z,85.20
2018-11-02T06:24:38.003Z,84.30
2018-11-02T06:27:05.507Z,84.20
2018-11-02T06:29:32.942Z,84.10
2018-11-02T06:32:00.345Z,84.20
2018-11-02T06:34:27.881Z,84.10
2018-11-02T06:36:55.845Z,84.10
2018-11-02T06:39:23.366Z,84.00
2018-11-02T06:41:50.820Z,83.90
2018-11-02T06:44:18.291Z,83.80
2018-11-02T06:46:45.732Z,84.10
2018-11-02T06:49:13.307Z,83.90
2018-11-02T06:51:40.918Z,84.20
2018-11-02T06:54:08.423Z,84.10
2018-11-02T06:56:35.830Z,83.90
2018-11-02T06:59:03.380Z,83.80
2018-11-02T07:01:30.783Z,84.20
2018-11-02T07:03:58.243Z,84.10
2018-11-02T07:06:25.646Z,84.00
2018-11-02T07:08:53.114Z,83.70
2018-11-02T07:11:20.513Z,83.50
2018-11-02T07:13:47.855Z,83.60
2018-11-02T07:16:15.321Z,83.70
2018-11-02T07:18:42.882Z,83.50
2018-11-02T07:21:10.321Z,83.50
2018-11-02T07:23:38.512Z,82.90
2018-11-02T07:26:10.900Z,82.20
2018-11-02T07:28:38.391Z,81.40
2018-11-02T07:31:06.609Z,80.90
2018-11-02T07:33:38.681Z,81.70
2018-11-02T07:36:07.087Z,81.60
2018-11-02T07:39:39.248Z,82.20
2018-11-02T07:42:07.011Z,82.90
2018-11-02T07:44:34.931Z,83.40
2018-11-02T07:47:02.565Z,84.20
2018-11-02T07:49:35.245Z,84.50
2018-11-02T07:52:03.573Z,85.00
2018-11-02T07:54:32.470Z,85.30
2018-11-02T07:57:01.436Z,85.50
2018-11-02T07:59:30.448Z,85.40
2018-11-02T08:01:57.875Z,85.40
2018-11-02T08:04:25.758Z,86.40
2018-11-02T08:06:53.821Z,85.80
2018-11-02T08:09:21.875Z,86.70
2018-11-02T08:11:49.499Z,85.30
2018-11-02T08:14:18.489Z,86.60
2018-11-02T08:16:46.069Z,86.30
2018-11-02T08:19:16.346Z,86.20
2018-11-02T08:21:44.550Z,86.60
2018-11-02T08:24:13.404Z,86.30
2018-11-02T08:26:40.814Z,87.30
2018-11-02T08:29:08.864Z,86.90
2018-11-02T08:31:43.065Z,86.40
2018-11-02T08:34:11.222Z,86.30
2018-11-02T08:36:38.648Z,86.20
2018-11-02T08:39:08.495Z,86.30
2018-11-02T08:41:36.155Z,85.70
2018-11-02T08:44:03.654Z,84.90
2018-11-02T08:46:31.230Z,84.50
2018-11-02T08:49:00.544Z,84.80
2018-11-02T08:51:28.270Z,84.70
2018-11-02T08:53:56.510Z,84.60
2018-11-02T08:56:24.154Z,84.10
2018-11-02T08:58:52.377Z,84.40
2018-11-02T09:01:19.747Z,84.40
2018-11-02T09:03:51.346Z,84.20
2018-11-02T09:06:19.432Z,83.80
2018-11-02T09:08:46.921Z,83.50
2018-11-02T09:11:20.729Z,83.10
2018-11-02T09:13:48.249Z,84.20
2018-11-02T09:16:15.850Z,84.60
2018-11-02T09:18:47.915Z,83.50
2018-11-02T09:21:15.711Z,83.90
2018-11-02T09:23:43.841Z,81.50
2018-11-02T09:26:11.963Z,82.30
2018-11-02T09:28:39.567Z,82.20
2018-11-02T09:31:07.116Z,82.20
2018-11-02T09:33:34.959Z,82.10
2018-11-02T09:36:02.719Z,82.20
2018-11-02T09:38:31.673Z,81.60
2018-11-02T09:41:00.278Z,80.80
2018-11-02T09:43:28.247Z,81.60
2018-11-02T09:45:56.266Z,82.40
2018-11-02T09:48:25.203Z,82.60
2018-11-02T09:50:53.506Z,82.00
2018-11-02T09:53:22.474Z,81.10
2018-11-02T09:55:50.753Z,80.40
2018-11-02T09:58:18.441Z,80.90
2018-11-02T10:00:46.053Z,80.80
2018-11-02T10:03:14.266Z,81.30
2018-11-02T10:05:41.801Z,81.20
2018-11-02T10:08:14.266Z,79.50
2018-11-02T10:10:43.634Z,80.00
2018-11-02T10:13:11.234Z,80.60
2018-11-02T10:15:39.514Z,79.70
2018-11-02T10:18:08.130Z,79.60
2018-11-02T10:20:40.436Z,79.30
2018-11-02T10:23:09.398Z,78.30
2018-11-02T10:25:37.024Z,78.00
2018-11-02T10:28:05.092Z,78.00
2018-11-02T10:30:33.974Z,78.10
2018-11-02T10:33:02.045Z,78.00
2018-11-02T10:35:31.129Z,78.60
2018-11-02T10:38:00.354Z,79.00
2018-11-02T10:40:28.205Z,78.70
2018-11-02T10:42:58.618Z,79.00
2018-11-02T10:45:32.356Z,78.60
2018-11-02T10:48:01.558Z,77.30
2018-11-02T10:50:29.407Z,77.00
2018-11-02T10:53:00.287Z,76.40
2018-11-02T10:55:29.352Z,76.60
2018-11-02T10:57:57.895Z,76.90
2018-11-02T11:00:31.161Z,76.80
2018-11-02T11:02:59.926Z,76.60
2018-11-02T11:05:27.468Z,77.10
2018-11-02T11:07:55.692Z,77.10
2018-11-02T11:10:23.358Z,76.70
2018-11-02T11:12:51.680Z,75.20
2018-11-02T11:15:20.738Z,74.40
2018-11-02T11:17:48.389Z,74.20
2018-11-02T11:20:15.851Z,74.30
2018-11-02T11:22:43.491Z,74.60
2018-11-02T11:25:13.054Z,75.40
2018-11-02T11:27:40.578Z,75.10
2018-11-02T11:30:16.044Z,74.90
2018-11-02T11:32:43.608Z,73.80
2018-11-02T11:35:18.222Z,73.20
2018-11-02T11:37:46.485Z,73.90
2018-11-02T11:40:24.476Z,74.40
2018-11-02T11:42:53.301Z,74.50
2018-11-02T11:45:21.546Z,74.00
2018-11-02T11:47:49.833Z,72.80
2018-11-02T11:50:20.997Z,72.60
2018-11-02T11:52:55.353Z,72.70
2018-11-02T11:55:24.908Z,72.60
2018-11-02T11:57:53.818Z,72.80
2018-11-02T12:00:22.867Z,72.40
2018-11-02T12:02:51.047Z,72.70
2018-11-02T12:05:20.865Z,73.30
2018-11-02T12:07:49.770Z,72.50
2018-11-02T12:12:56.085Z,71.70
2018-11-02T12:15:29.285Z,71.60
2018-11-02T12:17:57.471Z,71.90
2018-11-02T12:20:27.337Z,71.20
2018-11-02T12:22:57.063Z,71.10
2018-11-02T12:25:24.761Z,71.30
2018-11-02T12:27:52.296Z,69.70
2018-11-02T12:30:22.070Z,68.50
2018-11-02T12:32:49.502Z,66.30
2018-11-02T12:35:17.808Z,66.50
2018-11-02T12:37:45.407Z,67.40
2018-11-02T12:40:16.102Z,66.80
2018-11-02T12:42:45.291Z,67.00
2018-11-02T12:45:16.546Z,66.90
2018-11-02T12:47:45.075Z,66.60
2018-11-02T12:50:23.782Z,66.10
2018-11-02T12:52:57.258Z,66.10
2018-11-02T12:55:26.074Z,65.80
2018-11-02T12:57:55.378Z,65.40
2018-11-02T13:00:25.302Z,65.20
2018-11-02T13:02:53.877Z,65.00
2018-11-02T13:05:24.845Z,64.80
2018-11-02T13:07:52.584Z,64.50
2018-11-02T13:10:21.572Z,65.00
2018-11-02T13:12:49.965Z,64.90
2018-11-02T13:15:19.034Z,65.30
2018-11-02T13:17:49.586Z,65.20
2018-11-02T13:20:22.590Z,65.50
2018-11-02T13:22:51.355Z,65.50
2018-11-02T13:25:21.377Z,66.00
2018-11-02T13:27:50.060Z,66.30
2018-11-02T13:30:19.422Z,66.40
2018-11-02T13:32:46.787Z,67.00
2018-11-02T13:35:17.110Z,66.90
2018-11-02T13:37:45.794Z,67.00
2018-11-02T13:40:15.972Z,67.40
2018-11-02T13:42:44.999Z,67.40
2018-11-02T13:45:17.268Z,68.00
2018-11-02T13:47:45.375Z,67.70
2018-11-02T13:50:13.505Z,67.30
2018-11-02T13:52:42.954Z,67.40
2018-11-02T13:55:11.851Z,68.00
2018-11-02T13:57:44.386Z,67.90
2018-11-02T14:00:15.188Z,68.00
2018-11-02T14:02:47.005Z,68.00
2018-11-02T14:05:16.039Z,68.00
2018-11-02T14:07:44.609Z,68.00
2018-11-02T14:10:13.231Z,67.40
2018-11-02T14:12:41.316Z,66.40
2018-11-02T14:15:11.347Z,66.30
2018-11-02T14:17:41.521Z,66.10
2018-11-02T14:20:14.645Z,65.60
2018-11-02T14:25:21.233Z,65.90
2018-11-02T14:27:49.827Z,65.30
2018-11-02T14:30:17.898Z,65.40
2018-11-02T14:32:50.051Z,65.40
2018-11-02T14:35:18.890Z,65.50
2018-11-02T14:37:46.515Z,65.00
2018-11-02T14:40:19.873Z,65.20
2018-11-02T14:42:52.157Z,64.90
2018-11-02T14:45:19.794Z,64.90
2018-11-02T14:47:48.526Z,64.70
2018-11-02T14:50:17.154Z,64.70
2018-11-02T14:52:46.062Z,64.50
2018-11-02T14:55:15.102Z,64.50
2018-11-02T14:57:42.698Z,64.40
2018-11-02T15:00:16.400Z,64.50
2018-11-02T15:02:51.027Z,64.40
2018-11-02T15:05:18.730Z,64.80
2018-11-02T15:07:47.229Z,64.90
2018-11-02T15:10:14.820Z,64.80
2018-11-02T15:12:46.391Z,65.20
2018-11-02T15:15:13.959Z,65.30
2018-11-02T15:17:41.531Z,65.50
2018-11-02T15:20:11.292Z,65.80
2018-11-02T15:22:39.488Z,66.40
2018-11-02T15:25:07.268Z,67.00
2018-11-02T15:27:34.881Z,67.50
2018-11-02T15:30:03.492Z,68.00
2018-11-02T15:32:31.056Z,68.40
2018-11-02T15:34:58.667Z,68.70
2018-11-02T15:37:27.032Z,69.20
2018-11-02T15:39:54.808Z,69.30
2018-11-02T15:42:23.693Z,69.40
2018-11-02T15:44:52.016Z,69.70
2018-11-02T15:47:19.683Z,70.30
2018-11-02T15:49:47.454Z,70.60
2018-11-02T15:52:16.061Z,70.30
2018-11-02T15:54:43.947Z,70.50
2018-11-02T15:57:11.505Z,70.60
2018-11-02T15:59:39.794Z,70.70
2018-11-02T16:02:08.189Z,70.90
2018-11-02T16:04:40.731Z,71.30
2018-11-02T16:07:11.748Z,71.50
2018-11-02T16:09:41.291Z,71.70
2018-11-02T16:12:10.683Z,71.90
2018-11-02T16:14:38.518Z,71.90
2018-11-02T16:17:06.922Z,72.20
2018-11-02T16:19:35.033Z,72.20
2018-11-02T16:22:03.103Z,72.40
2018-11-02T16:24:31.155Z,72.50
2018-11-02T16:27:05.874Z,72.20
2018-11-02T16:29:33.494Z,72.10
2018-11-02T16:32:05.663Z,72.30
2018-11-02T16:34:35.347Z,72.40
2018-11-02T16:37:03.899Z,72.50
2018-11-02T16:39:31.603Z,72.80
2018-11-02T16:41:59.385Z,72.70
2018-11-02T16:44:27.575Z,72.80
2018-11-02T16:46:57.697Z,72.10
2018-11-02T16:49:25.394Z,71.80
2018-11-02T16:51:54.108Z,71.60
2018-11-02T16:54:21.771Z,71.40
2018-11-02T16:56:51.226Z,71.10
2018-11-02T16:59:19.311Z,71.30
2018-11-02T17:01:54.266Z,71.40
2018-11-02T17:04:22.151Z,71.30
2018-11-02T17:06:49.765Z,71.40
2018-11-02T17:09:17.959Z,70.30
2018-11-02T17:11:46.128Z,71.10
2018-11-02T17:14:16.120Z,70.90
2018-11-02T17:16:43.788Z,70.60
2018-11-02T17:19:12.052Z,70.50
2018-11-02T17:21:40.215Z,70.00
2018-11-02T17:24:08.679Z,69.90
2018-11-02T17:26:36.547Z,68.90
2018-11-02T17:29:08.864Z,68.70
2018-11-02T17:31:36.813Z,68.60
2018-11-02T17:34:05.528Z,68.00
2018-11-02T17:36:37.632Z,67.50
2018-11-02T17:39:08.505Z,67.20
2018-11-02T17:41:38.478Z,67.20
2018-11-02T17:44:08.399Z,67.50
2018-11-02T17:46:36.766Z,68.40
2018-11-02T17:49:06.717Z,67.80
2018-11-02T17:51:37.046Z,67.30
2018-11-02T17:54:05.331Z,68.30
2018-11-02T17:56:33.026Z,68.10
2018-11-02T17:59:04.071Z,67.90
2018-11-02T18:01:35.309Z,69.00
2018-11-02T18:04:03.597Z,69.00
2018-11-02T18:06:32.582Z,69.20
2018-11-02T18:09:00.320Z,69.00
2018-11-02T18:11:28.053Z,69.10
2018-11-02T18:13:59.937Z,68.60
2018-11-02T18:16:27.670Z,69.00
2018-11-02T18:18:55.491Z,68.70
2018-11-02T18:21:23.322Z,68.70
2018-11-02T18:23:51.121Z,68.70
2018-11-02T18:26:19.405Z,68.10
2018-11-02T18:28:47.104Z,68.30
2018-11-02T18:31:16.752Z,68.00
2018-11-02T18:33:45.849Z,68.50
2018-11-02T18:36:13.533Z,68.40
2018-11-02T18:38:42.120Z,68.50
2018-11-02T18:41:13.877Z,68.80
2018-11-02T18:43:48.161Z,68.90
2018-11-02T18:46:15.723Z,68.40
2018-11-02T18:48:43.739Z,68.70
2018-11-02T18:51:18.394Z,68.50
2018-11-02T18:53:46.453Z,67.20
2018-11-02T18:56:15.083Z,67.70
2018-11-02T18:58:42.802Z,68.60
2018-11-02T19:01:10.390Z,68.60
2018-11-02T19:03:37.841Z,68.20
2018-11-02T19:06:05.850Z,68.20
2018-11-02T19:08:33.655Z,68.50
2018-11-02T19:11:01.237Z,68.70
2018-11-02T19:13:34.940Z,67.60
2018-11-02T19:16:02.494Z,67.50
2018-11-02T19:18:30.613Z,66.50
2018-11-02T19:21:00.846Z,67.40
2018-11-02T19:23:29.105Z,67.90
2018-11-02T19:25:56.673Z,67.80
2018-11-02T19:28:25.245Z,67.40
2018-11-02T19:30:57.092Z,66.70
2018-11-02T19:33:25.185Z,67.30
2018-11-02T19:35:54.387Z,67.30
2018-11-02T19:38:22.425Z,67.10
2018-11-02T19:40:50.055Z,67.20
2018-11-02T19:43:21.645Z,66.80
2018-11-02T19:45:54.530Z,67.30
2018-11-02T19:48:22.744Z,66.50
2018-11-02T19:50:51.715Z,66.00
2018-11-02T19:53:24.526Z,64.90
2018-11-02T19:55:58.255Z,67.00
2018-11-02T19:58:26.024Z,65.70
2018-11-02T20:00:53.619Z,66.80
2018-11-02T20:03:21.283Z,66.90
2018-11-02T20:05:50.208Z,67.00
2018-11-02T20:08:18.565Z,66.70
2018-11-02T20:10:47.071Z,65.90
2018-11-02T20:13:15.988Z,66.00
2018-11-02T20:15:44.961Z,65.70
2018-11-02T20:18:12.697Z,65.70
2018-11-02T20:20:41.073Z,66.40
2018-11-02T20:23:13.635Z,65.90
2018-11-02T20:25:41.476Z,66.10
2018-11-02T20:28:09.359Z,66.70
2018-11-02T20:30:37.059Z,67.80
2018-11-02T20:33:04.770Z,68.40
2018-11-02T20:35:36.997Z,68.60
2018-11-02T20:38:05.418Z,68.40
2018-11-02T20:40:33.911Z,68.30
2018-11-02T20:43:03.422Z,68.30
2018-11-02T20:45:36.332Z,68.50
2018-11-02T20:48:05.112Z,68.70
2018-11-02T20:50:32.923Z,68.90
2018-11-02T20:53:00.570Z,68.60
2018-11-02T20:55:29.000Z,69.20
2018-11-02T20:57:56.883Z,68.70
2018-11-02T21:00:24.838Z,68.70
2018-11-02T21:02:52.955Z,68.70
2018-11-02T21:05:21.252Z,69.00
2018-11-02T21:07:49.646Z,69.10
2018-11-02T21:10:18.463Z,69.10
2018-11-02T21:12:46.383Z,69.80
2018-11-02T21:15:15.975Z,70.10
2018-11-02T21:17:43.594Z,69.70
2018-11-02T21:20:13.922Z,70.40
2018-11-02T21:22:42.086Z,71.20
2018-11-02T21:25:16.386Z,71.60
2018-11-02T21:27:50.745Z,72.00
2018-11-02T21:30:27.985Z,71.10
2018-11-02T21:32:55.799Z,72.40
2018-11-02T21:35:23.887Z,72.40
2018-11-02T21:37:51.729Z,72.30
2018-11-02T21:40:20.619Z,72.60
2018-11-02T21:42:48.185Z,72.50
2018-11-02T21:45:17.176Z,73.10
2018-11-02T21:47:45.184Z,73.20
2018-11-02T21:50:13.307Z,72.90
2018-11-02T21:52:42.165Z,73.60
2018-11-02T21:55:10.532Z,73.80
2018-11-02T21:57:38.380Z,74.10
2018-11-02T22:00:08.210Z,74.00
2018-11-02T22:02:35.785Z,74.10
2018-11-02T22:05:04.079Z,74.10
2018-11-02T22:07:36.034Z,74.10
2018-11-02T22:10:05.081Z,74.00
2018-11-02T22:12:32.645Z,74.50
2018-11-02T22:15:00.237Z,74.10
2018-11-02T22:17:27.837Z,73.80
2018-11-02T22:19:55.611Z,74.60
2018-11-02T22:22:26.194Z,74.50
2018-11-02T22:24:53.863Z,74.40
2018-11-02T22:27:21.526Z,74.20
2018-11-02T22:29:49.318Z,73.80
2018-11-02T22:32:16.803Z,74.50
2018-11-02T22:34:44.282Z,75.00
2018-11-02T22:37:12.011Z,74.40
2018-11-02T22:39:39.552Z,74.00
2018-11-02T22:42:07.181Z,74.10
2018-11-02T22:44:34.699Z,74.50
2018-11-02T22:47:02.219Z,74.30
2018-11-02T22:49:29.724Z,74.30
2018-11-02T22:51:57.799Z,74.70
2018-11-02T22:54:26.256Z,74.70
2018-11-02T22:56:53.900Z,74.40
2018-11-02T22:59:22.157Z,74.60
2018-11-02T23:01:49.707Z,74.30
2018-11-02T23:04:19.303Z,74.60
2018-11-02T23:06:47.477Z,74.90
2018-11-02T23:09:22.638Z,74.50
2018-11-02T23:11:50.175Z,74.20
2018-11-02T23:14:18.266Z,74.40
2018-11-02T23:16:45.816Z,74.40
2018-11-02T23:19:13.375Z,74.50
2018-11-02T23:21:40.848Z,74.30
2018-11-02T23:24:08.319Z,74.10
2018-11-02T23:26:37.148Z,74.30
2018-11-02T23:29:05.856Z,74.30
2018-11-02T23:31:33.673Z,74.20
2018-11-02T23:34:01.971Z,73.80
2018-11-02T23:36:29.467Z,74.30
2018-11-02T23:38:57.019Z,74.50
2018-11-02T23:41:24.501Z,74.70
2018-11-02T23:43:51.998Z,74.70
2018-11-02T23:46:19.494Z,74.60
2018-11-02T23:48:47.041Z,74.90
2018-11-02T23:51:14.613Z,75.10
2018-11-02T23:53:42.173Z,75.00
2018-11-02T23:56:09.669Z,74.90
2018-11-02T23:58:37.228Z,74.70
